Time;durP1;ratioP1;P1;durP2;ratioP2;P2;SDS_P1;SDS_P2;PMS_P1;PMS_P2;Temp;Humidity;BMP_temperature;BMP_pressure;BME280_temperature;BME280_humidity;BME280_pressure;Samples;Min_cycle;Max_cycle;Signal;HPM_P1;HPM_P2
2022/01/01 00:00:40;;;;;;;28.33;9.93;;;10.80;94.80;;;;;;5075581;28;20191;-89
2022/01/01 00:03:06;;;;;;;23.97;7.83;;;10.80;94.80;;;;;;5057625;28;20210;-90
2022/01/01 00:05:31;;;;;;;31.13;9.73;;;10.80;94.70;;;;;;5057529;28;20191;-90
2022/01/01 00:07:59;;;;;;;28.20;8.20;;;10.80;94.70;;;;;;5057429;28;20233;-89
2022/01/01 00:10:24;;;;;;;31.13;9.10;;;10.80;94.70;;;;;;5057326;28;20219;-90
2022/01/01 00:12:50;;;;;;;33.43;9.97;;;10.80;94.70;;;;;;5057515;28;20207;-90
2022/01/01 00:15:17;;;;;;;33.93;10.73;;;10.80;94.70;;;;;;5057399;28;20232;-88
2022/01/01 00:17:43;;;;;;;30.80;10.43;;;10.80;94.70;;;;;;5057231;28;20655;-89
2022/01/01 00:20:10;;;;;;;29.20;10.60;;;10.80;94.70;;;;;;5056797;28;20247;-89
2022/01/01 00:22:37;;;;;;;26.83;10.47;;;10.80;94.60;;;;;;5057511;28;20187;-89
2022/01/01 00:25:04;;;;;;;40.03;11.37;;;10.80;94.60;;;;;;5056970;28;20206;-89
2022/01/01 00:27:30;;;;;;;25.37;10.10;;;10.80;94.60;;;;;;5056566;28;20203;-88
2022/01/01 00:29:55;;;;;;;36.83;11.23;;;10.80;94.60;;;;;;5074946;28;20199;-88
2022/01/01 00:32:21;;;;;;;29.43;10.60;;;10.80;94.50;;;;;;5075091;28;20175;-87
2022/01/01 00:34:47;;;;;;;30.47;10.83;;;10.80;94.50;;;;;;5074998;28;20167;-89
2022/01/01 00:37:12;;;;;;;24.97;9.90;;;10.80;94.40;;;;;;5074880;28;20661;-89
2022/01/01 00:39:38;;;;;;;34.33;10.70;;;10.80;94.40;;;;;;5074559;28;20655;-88
2022/01/01 00:42:04;;;;;;;33.77;10.93;;;10.80;94.30;;;;;;5074946;28;20175;-88
2022/01/01 00:44:30;;;;;;;36.10;12.00;;;10.80;94.30;;;;;;5057863;28;20179;-88
2022/01/01 00:46:57;;;;;;;34.43;11.87;;;10.80;94.40;;;;;;5056827;28;20202;-89
2022/01/01 00:49:23;;;;;;;39.93;11.57;;;10.80;94.40;;;;;;5056673;28;20215;-87
2022/01/01 00:51:49;;;;;;;32.07;10.23;;;10.70;94.40;;;;;;5056514;28;20178;-88
2022/01/01 00:54:14;;;;;;;24.67;10.53;;;10.80;94.40;;;;;;5074442;28;20545;-89
2022/01/01 00:56:40;;;;;;;30.57;10.47;;;10.80;94.50;;;;;;5056321;28;20183;-88
2022/01/01 00:59:06;;;;;;;24.57;10.17;;;10.80;94.50;;;;;;5056336;28;20693;-88
2022/01/01 01:01:32;;;;;;;24.13;9.73;;;10.70;94.60;;;;;;5056871;28;20193;-89
2022/01/01 01:03:58;;;;;;;28.47;11.47;;;10.70;94.60;;;;;;5057879;28;20180;-87
2022/01/01 01:06:23;;;;;;;29.37;9.90;;;10.70;94.70;;;;;;5056890;28;20189;-87
2022/01/01 01:08:51;;;;;;;27.40;11.40;;;10.70;94.70;;;;;;5057187;28;20195;-87
2022/01/01 01:11:17;;;;;;;38.37;15.13;;;10.70;94.60;;;;;;5056818;28;20175;-89
2022/01/01 01:13:45;;;;;;;30.50;12.40;;;10.80;94.60;;;;;;5054960;28;20455;-88
2022/01/01 01:16:11;;;;;;;35.80;12.17;;;10.80;94.50;;;;;;5055980;28;20183;-89
2022/01/01 01:18:36;;;;;;;35.83;11.50;;;10.70;94.50;;;;;;5055735;28;20176;-89
2022/01/01 01:21:02;;;;;;;25.53;10.93;;;10.70;94.40;;;;;;5074079;28;20171;-90
2022/01/01 01:23:28;;;;;;;25.07;9.83;;;10.70;94.40;;;;;;5056245;28;20180;-90
2022/01/01 01:25:56;;;;;;;28.10;11.80;;;10.70;94.40;;;;;;5055742;28;20225;-90
2022/01/01 01:28:22;;;;;;;30.77;12.60;;;10.60;94.40;;;;;;5056035;28;20207;-89
2022/01/01 01:30:47;;;;;;;30.40;12.20;;;10.70;94.50;;;;;;5055927;28;20183;-90
2022/01/01 01:33:13;;;;;;;34.17;12.20;;;10.70;94.50;;;;;;5055731;28;20182;-89
2022/01/01 01:35:39;;;;;;;31.70;13.53;;;10.60;94.50;;;;;;5055687;28;20179;-90
2022/01/01 01:38:05;;;;;;;35.63;13.87;;;10.60;94.60;;;;;;5054789;28;20186;-90
2022/01/01 01:40:31;;;;;;;26.47;10.93;;;10.60;94.60;;;;;;5055684;28;20262;-91
2022/01/01 01:42:57;;;;;;;30.00;11.63;;;10.60;94.70;;;;;;5055575;28;20647;-90
2022/01/01 01:45:27;;;;;;;27.23;10.37;;;10.60;94.70;;;;;;5055399;28;20218;-91
2022/01/01 01:47:53;;;;;;;33.10;11.37;;;10.60;94.70;;;;;;5055294;28;20683;-91
2022/01/01 01:50:19;;;;;;;31.17;12.27;;;10.60;94.80;;;;;;5073582;28;20196;-90
2022/01/01 01:52:49;;;;;;;35.07;12.10;;;10.60;94.80;;;;;;5055522;28;20657;-90
2022/01/01 01:55:15;;;;;;;28.23;11.50;;;10.60;94.80;;;;;;5055488;28;20642;-92
2022/01/01 01:57:42;;;;;;;30.90;13.33;;;10.60;94.80;;;;;;5055386;28;20179;-91
2022/01/01 02:01:20;;;;;;;38.87;14.27;;;10.60;94.80;;;;;;5055149;28;20196;-90
2022/01/01 02:03:00;;;;;;;37.47;15.83;;;10.60;94.80;;;;;;5065842;28;20183;-90
2022/01/01 02:05:25;;;;;;;34.00;14.33;;;10.60;94.80;;;;;;5055713;28;20654;-89
2022/01/01 02:07:52;;;;;;;31.50;14.23;;;10.60;94.90;;;;;;5055386;28;20297;-89
2022/01/01 02:10:18;;;;;;;32.57;14.50;;;10.70;94.90;;;;;;5055255;28;20195;-88
2022/01/01 02:12:49;;;;;;;31.80;14.80;;;10.70;94.80;;;;;;5073225;28;20177;-89
2022/01/01 02:18:05;;;;;;;29.47;14.17;;;10.70;94.70;;;;;;5073522;28;20497;-89
2022/01/01 02:20:30;;;;;;;29.00;12.73;;;10.70;94.80;;;;;;5055580;28;20214;-89
2022/01/01 02:23:00;;;;;;;38.57;14.23;;;10.70;94.70;;;;;;5055149;28;20588;-89
2022/01/01 02:25:26;;;;;;;34.07;14.63;;;10.80;94.70;;;;;;5055179;28;20210;-89
2022/01/01 02:27:52;;;;;;;35.17;14.87;;;10.80;94.60;;;;;;5054974;28;20241;-89
2022/01/01 02:30:18;;;;;;;43.20;14.23;;;10.80;94.40;;;;;;5073043;28;20223;-91
2022/01/01 02:32:44;;;;;;;36.57;19.00;;;10.90;94.30;;;;;;5055075;28;20175;-89
2022/01/01 02:35:12;;;;;;;39.57;16.90;;;10.90;94.40;;;;;;5054940;28;20225;-91
2022/01/01 02:37:39;;;;;;;40.43;17.10;;;10.80;94.40;;;;;;5054976;28;20184;-90
2022/01/01 02:40:06;;;;;;;39.00;16.33;;;10.80;94.40;;;;;;5054989;28;20195;-89
2022/01/01 02:42:33;;;;;;;35.67;14.77;;;10.80;94.40;;;;;;5054778;28;20187;-90
2022/01/01 02:45:02;;;;;;;36.13;19.80;;;10.80;94.40;;;;;;5054843;28;20245;-89
2022/01/01 02:47:27;;;;;;;43.10;20.10;;;10.80;94.40;;;;;;5054891;28;20203;-90
2022/01/01 02:49:53;;;;;;;41.70;20.97;;;10.80;94.40;;;;;;5075215;28;20203;-90
2022/01/01 02:52:19;;;;;;;47.40;20.90;;;10.80;94.40;;;;;;5076516;28;20175;-89
2022/01/01 02:54:44;;;;;;;46.20;22.27;;;10.80;94.50;;;;;;5058695;28;20175;-90
2022/01/01 02:57:10;;;;;;;33.67;18.53;;;10.80;94.40;;;;;;5058753;28;20203;-90
2022/01/01 02:59:35;;;;;;;47.60;21.40;;;10.80;94.40;;;;;;5058590;28;20206;-90
2022/01/01 03:02:01;;;;;;;52.83;20.63;;;10.70;94.40;;;;;;5058616;28;20179;-89
2022/01/01 03:04:27;;;;;;;53.30;21.27;;;10.80;94.50;;;;;;5058438;28;20190;-90
2022/01/01 03:06:55;;;;;;;41.03;20.93;;;10.70;94.50;;;;;;5058248;28;20203;-90
2022/01/01 03:09:24;;;;;;;42.13;21.57;;;10.80;94.50;;;;;;5076311;28;20187;-89
2022/01/01 03:11:51;;;;;;;52.03;18.60;;;10.80;94.50;;;;;;5059150;28;20174;-89
2022/01/01 03:14:17;;;;;;;31.50;17.07;;;10.80;94.40;;;;;;5058275;28;20181;-90
2022/01/01 03:16:45;;;;;;;42.23;19.17;;;10.80;94.30;;;;;;5058116;28;20184;-89
2022/01/01 03:19:11;;;;;;;42.70;19.80;;;10.80;94.30;;;;;;5057886;28;20253;-90
2022/01/01 03:21:36;;;;;;;47.67;20.60;;;10.90;94.30;;;;;;5058252;28;20187;-90
2022/01/01 03:24:03;;;;;;;36.23;19.13;;;10.90;94.10;;;;;;5058087;28;20202;-90
2022/01/01 03:26:28;;;;;;;42.27;17.13;;;10.80;94.20;;;;;;5058284;28;20176;-90
2022/01/01 03:28:54;;;;;;;44.57;19.30;;;10.90;94.10;;;;;;5057893;28;20199;-90
2022/01/01 03:31:19;;;;;;;43.33;16.60;;;10.90;94.00;;;;;;5058012;28;20172;-89
2022/01/01 03:33:45;;;;;;;28.70;13.97;;;10.90;94.00;;;;;;5058014;28;20655;-89
2022/01/01 03:36:11;;;;;;;47.67;19.57;;;10.90;93.90;;;;;;5058645;28;20171;-89
2022/01/01 03:38:37;;;;;;;37.70;17.43;;;10.80;93.90;;;;;;5057645;28;20655;-90
2022/01/01 03:41:03;;;;;;;34.43;18.53;;;10.90;94.00;;;;;;5057871;28;20175;-90
2022/01/01 03:43:28;;;;;;;38.07;18.77;;;10.80;93.90;;;;;;5075745;28;20172;-90
2022/01/01 03:45:54;;;;;;;34.63;17.80;;;10.90;94.10;;;;;;5057762;28;20171;-90
2022/01/01 03:48:19;;;;;;;44.00;18.57;;;10.80;94.00;;;;;;5057761;28;20670;-90
2022/01/01 03:50:45;;;;;;;42.73;17.30;;;10.80;94.00;;;;;;5057595;28;20175;-89
2022/01/01 03:53:11;;;;;;;40.23;16.93;;;10.90;94.00;;;;;;5057718;28;20182;-90
2022/01/01 03:55:36;;;;;;;47.23;21.27;;;10.90;94.00;;;;;;5057640;28;20710;-90
2022/01/01 03:58:02;;;;;;;39.47;17.13;;;10.90;94.00;;;;;;5057643;28;20647;-89
2022/01/01 04:00:28;;;;;;;38.57;19.20;;;10.90;94.00;;;;;;5056792;28;20203;-91
2022/01/01 04:02:53;;;;;;;54.63;20.33;;;10.90;94.00;;;;;;5057539;28;20183;-90
2022/01/01 04:05:19;;;;;;;41.03;19.43;;;10.90;94.00;;;;;;5057359;28;20183;-90
2022/01/01 04:07:45;;;;;;;42.80;17.97;;;10.80;94.00;;;;;;5057539;28;20210;-91
2022/01/01 04:10:11;;;;;;;35.77;18.27;;;10.80;94.10;;;;;;5057432;28;20282;-88
2022/01/01 04:12:36;;;;;;;41.73;17.63;;;10.90;94.10;;;;;;5057284;28;20666;-89
2022/01/01 04:15:03;;;;;;;47.67;20.83;;;10.80;94.10;;;;;;5057166;28;20176;-90
2022/01/01 04:17:29;;;;;;;46.07;20.53;;;10.80;94.20;;;;;;5057032;28;20203;-89
2022/01/01 04:19:54;;;;;;;52.23;21.43;;;10.80;94.20;;;;;;5056888;28;20235;-88
2022/01/01 04:22:20;;;;;;;46.60;21.90;;;10.80;94.20;;;;;;5057300;28;20209;-91
2022/01/01 04:24:45;;;;;;;40.67;20.73;;;10.80;94.20;;;;;;5057281;28;20175;-89
2022/01/01 04:27:11;;;;;;;42.20;19.63;;;10.80;94.10;;;;;;5075056;28;20563;-90
2022/01/01 04:29:38;;;;;;;39.17;17.70;;;10.80;94.30;;;;;;5074724;28;20191;-88
2022/01/01 04:32:04;;;;;;;44.03;21.23;;;10.80;94.20;;;;;;5056876;28;20178;-90
2022/01/01 04:34:30;;;;;;;52.87;23.03;;;10.80;94.20;;;;;;5056810;28;20175;-89
2022/01/01 04:37:01;;;;;;;45.50;21.63;;;10.70;94.20;;;;;;5056877;28;20666;-89
2022/01/01 04:39:27;;;;;;;51.80;24.40;;;10.80;94.20;;;;;;5074576;28;20199;-89
2022/01/01 04:41:53;;;;;;;51.50;23.60;;;10.80;94.20;;;;;;5056811;28;20266;-89
2022/01/01 04:44:19;;;;;;;54.30;25.37;;;10.80;94.20;;;;;;5056626;28;20320;-89
2022/01/01 04:46:44;;;;;;;49.03;20.43;;;10.70;94.30;;;;;;5056719;28;20238;-90
2022/01/01 04:49:10;;;;;;;56.47;25.27;;;10.80;94.30;;;;;;5056452;28;20566;-90
2022/01/01 04:51:35;;;;;;;54.07;25.60;;;10.80;94.10;;;;;;5056390;28;20171;-90
2022/01/01 04:54:02;;;;;;;55.27;24.47;;;10.80;94.10;;;;;;5056400;28;20179;-90
2022/01/01 04:56:29;;;;;;;54.83;26.33;;;10.80;94.10;;;;;;5056331;28;20171;-90
2022/01/01 04:58:55;;;;;;;58.50;27.83;;;10.70;94.10;;;;;;5056260;28;20195;-90
2022/01/01 05:01:22;;;;;;;65.90;29.33;;;10.80;94.10;;;;;;5056230;28;20198;-90
2022/01/01 05:03:48;;;;;;;63.27;30.50;;;10.70;94.20;;;;;;5074106;28;20167;-90
2022/01/01 05:06:13;;;;;;;57.70;27.23;;;10.70;94.30;;;;;;5056505;28;20176;-89
2022/01/01 05:08:39;;;;;;;52.40;26.37;;;10.70;94.30;;;;;;5055993;28;20222;-90
2022/01/01 05:11:05;;;;;;;61.70;27.20;;;10.80;94.20;;;;;;5056064;28;20176;-90
2022/01/01 05:13:31;;;;;;;55.87;27.13;;;10.80;94.20;;;;;;5056127;28;20666;-89
2022/01/01 05:15:57;;;;;;;52.83;27.47;;;10.80;94.20;;;;;;5056105;28;20530;-89
2022/01/01 05:18:23;;;;;;;56.87;26.27;;;10.80;94.10;;;;;;5055822;28;20186;-91
2022/01/01 05:20:49;;;;;;;48.47;26.87;;;10.80;94.10;;;;;;5056246;28;20647;-90
2022/01/01 05:23:15;;;;;;;51.17;24.33;;;10.80;94.10;;;;;;5055789;28;20253;-90
2022/01/01 05:25:41;;;;;;;67.73;29.43;;;10.80;94.10;;;;;;5056435;28;20631;-89
2022/01/01 05:28:06;;;;;;;70.70;32.00;;;10.80;94.10;;;;;;5073866;28;20671;-90
2022/01/01 05:30:32;;;;;;;59.10;27.67;;;10.80;94.10;;;;;;5073537;28;20643;-90
2022/01/01 05:33:02;;;;;;;59.60;28.90;;;10.80;94.10;;;;;;5055705;28;20175;-89
2022/01/01 05:35:28;;;;;;;58.60;29.43;;;10.80;94.20;;;;;;5055659;28;20182;-90
2022/01/01 05:37:53;;;;;;;62.57;30.13;;;10.80;94.20;;;;;;5055752;28;20635;-89
2022/01/01 05:40:19;;;;;;;62.20;27.50;;;10.80;94.20;;;;;;5055483;28;20248;-90
2022/01/01 05:42:48;;;;;;;64.30;27.43;;;10.80;94.20;;;;;;5073420;28;20225;-90
2022/01/01 05:45:13;;;;;;;58.87;28.43;;;10.80;94.20;;;;;;5055863;28;20179;-89
2022/01/01 05:47:39;;;;;;;60.50;28.50;;;10.80;94.20;;;;;;5055450;28;20210;-90
2022/01/01 05:50:05;;;;;;;56.40;26.03;;;10.80;94.20;;;;;;5073392;28;20570;-90
2022/01/01 05:52:31;;;;;;;58.77;26.03;;;10.70;94.30;;;;;;5055504;28;20175;-90
2022/01/01 05:54:56;;;;;;;63.83;28.37;;;10.80;94.30;;;;;;5055450;28;20670;-89
2022/01/01 05:57:22;;;;;;;52.53;26.03;;;10.70;94.20;;;;;;5055325;28;20270;-90
2022/01/01 05:59:48;;;;;;;57.03;25.67;;;10.80;94.20;;;;;;5055437;28;20203;-89
2022/01/01 06:02:13;;;;;;;52.07;25.80;;;10.70;94.20;;;;;;5055433;28;20175;-87
2022/01/01 06:04:39;;;;;;;58.53;26.73;;;10.70;94.30;;;;;;5073345;28;20536;-90
2022/01/01 06:07:04;;;;;;;59.67;25.30;;;10.70;94.30;;;;;;5073213;28;20199;-89
2022/01/01 06:09:31;;;;;;;61.03;25.70;;;10.70;94.40;;;;;;5055249;28;20201;-89
2022/01/01 06:11:56;;;;;;;61.20;23.07;;;10.70;94.30;;;;;;5055354;28;20263;-90
2022/01/01 06:14:22;;;;;;;61.30;25.90;;;10.70;94.20;;;;;;5073203;28;20199;-89
2022/01/01 06:16:48;;;;;;;52.53;22.30;;;10.70;94.20;;;;;;5055759;28;20233;-90
2022/01/01 06:19:14;;;;;;;63.07;22.30;;;10.70;94.20;;;;;;5055030;28;20221;-90
2022/01/01 06:21:40;;;;;;;73.33;23.73;;;10.70;94.10;;;;;;5055634;28;20221;-90
2022/01/01 06:24:06;;;;;;;44.07;20.43;;;10.70;94.10;;;;;;5056593;28;20249;-89
2022/01/01 06:26:32;;;;;;;52.97;21.60;;;10.70;94.00;;;;;;5077096;28;20183;-89
2022/01/01 06:28:57;;;;;;;52.60;21.10;;;10.80;94.00;;;;;;5059028;28;20542;-89
2022/01/01 06:31:23;;;;;;;44.70;20.83;;;10.80;94.00;;;;;;5059158;28;20262;-89
2022/01/01 06:33:48;;;;;;;46.67;21.30;;;10.70;94.10;;;;;;5059084;28;20559;-90
2022/01/01 06:36:15;;;;;;;50.90;22.93;;;10.80;94.00;;;;;;5059086;28;20179;-89
2022/01/01 06:38:42;;;;;;;60.07;23.17;;;10.80;94.00;;;;;;5076915;28;20198;-90
2022/01/01 06:41:09;;;;;;;51.57;22.83;;;10.80;94.00;;;;;;5059071;28;20229;-90
2022/01/01 06:43:34;;;;;;;58.40;20.47;;;10.70;94.00;;;;;;5060725;28;20176;-89
2022/01/01 06:46:00;;;;;;;58.07;23.90;;;10.70;94.10;;;;;;5058917;28;20186;-89
2022/01/01 06:48:25;;;;;;;56.50;22.63;;;10.70;94.10;;;;;;5076921;28;20242;-90
2022/01/01 06:50:51;;;;;;;55.33;22.57;;;10.70;94.20;;;;;;5058913;28;20180;-90
2022/01/01 06:53:17;;;;;;;50.43;19.03;;;10.70;94.20;;;;;;5058755;28;20183;-89
2022/01/01 06:55:43;;;;;;;48.10;21.00;;;10.70;94.10;;;;;;5058607;28;20182;-90
2022/01/01 06:58:09;;;;;;;53.87;21.80;;;10.70;94.10;;;;;;5058964;28;20175;-90
2022/01/01 07:00:37;;;;;;;46.77;19.73;;;10.70;94.10;;;;;;5059255;28;20207;-89
2022/01/01 07:03:03;;;;;;;60.77;22.23;;;10.70;94.00;;;;;;5058624;28;20183;-90
2022/01/01 07:05:29;;;;;;;56.10;22.10;;;10.70;94.00;;;;;;5058543;28;20193;-91
2022/01/01 07:07:55;;;;;;;51.40;22.50;;;10.70;94.00;;;;;;5076193;28;20653;-89
2022/01/01 07:10:21;;;;;;;47.87;22.03;;;10.70;94.00;;;;;;5058379;28;20199;-89
2022/01/01 07:12:47;;;;;;;53.73;22.93;;;10.70;94.00;;;;;;5076300;28;20264;-89
2022/01/01 07:15:15;;;;;;;63.63;24.00;;;10.70;94.00;;;;;;5076153;28;20171;-89
2022/01/01 07:17:41;;;;;;;50.77;22.80;;;10.70;94.10;;;;;;5058300;28;20346;-89
2022/01/01 07:20:07;;;;;;;59.37;24.07;;;10.70;94.10;;;;;;5058080;28;20242;-90
2022/01/01 07:22:39;;;;;;;56.70;23.33;;;10.70;94.20;;;;;;5058544;28;20175;-90
2022/01/01 07:25:06;;;;;;;58.73;22.70;;;10.60;94.20;;;;;;5076118;28;20528;-90
2022/01/01 07:27:32;;;;;;;57.33;23.07;;;10.60;94.30;;;;;;5058053;28;20207;-89
2022/01/01 07:29:57;;;;;;;62.77;26.37;;;10.60;94.30;;;;;;5057972;28;20202;-89
2022/01/01 07:32:24;;;;;;;61.40;24.93;;;10.60;94.40;;;;;;5058099;28;20198;-89
2022/01/01 07:34:50;;;;;;;54.93;24.43;;;10.60;94.40;;;;;;5057497;28;20220;-90
2022/01/01 07:37:15;;;;;;;61.90;25.77;;;10.70;94.40;;;;;;5057278;28;20658;-90
2022/01/01 07:39:41;;;;;;;67.87;27.77;;;10.60;94.40;;;;;;5057795;28;20225;-90
2022/01/01 07:42:07;;;;;;;62.93;27.37;;;10.50;94.50;;;;;;5076009;28;20208;-90
2022/01/01 07:44:32;;;;;;;61.50;28.30;;;10.50;94.60;;;;;;5057866;28;20187;-90
2022/01/01 07:46:58;;;;;;;54.27;25.43;;;10.60;94.60;;;;;;5057809;28;20206;-89
2022/01/01 07:49:24;;;;;;;67.83;28.60;;;10.60;94.70;;;;;;5057636;28;20266;-89
2022/01/01 07:51:49;;;;;;;66.07;30.60;;;10.60;94.70;;;;;;5058300;28;20181;-89
2022/01/01 07:54:15;;;;;;;78.13;30.30;;;10.50;94.70;;;;;;5057995;28;20699;-89
2022/01/01 07:56:41;;;;;;;70.30;27.63;;;10.60;94.70;;;;;;5075531;28;20243;-89
2022/01/01 07:59:06;;;;;;;71.13;29.13;;;10.60;94.70;;;;;;5057510;28;20225;-89
2022/01/01 08:01:32;;;;;;;71.33;29.90;;;10.60;94.70;;;;;;5057458;28;20211;-89
2022/01/01 08:04:01;;;;;;;82.27;33.50;;;10.70;94.70;;;;;;5057428;28;20171;-89
2022/01/01 08:06:29;;;;;;;78.97;31.63;;;10.60;94.70;;;;;;5058366;28;20175;-90
2022/01/01 08:08:54;;;;;;;66.20;29.03;;;10.70;94.70;;;;;;5075171;28;20266;-89
2022/01/01 08:11:20;;;;;;;79.43;29.17;;;10.70;94.60;;;;;;5057360;28;20202;-89
2022/01/01 08:13:46;;;;;;;76.03;29.77;;;10.70;94.70;;;;;;5057227;28;20175;-89
2022/01/01 08:16:11;;;;;;;91.17;34.97;;;10.70;94.70;;;;;;5075027;28;20261;-90
2022/01/01 08:18:37;;;;;;;84.63;32.07;;;10.70;94.70;;;;;;5057003;28;20576;-89
2022/01/01 08:21:02;;;;;;;79.97;31.30;;;10.70;94.70;;;;;;5057175;28;20387;-89
2022/01/01 08:23:28;;;;;;;70.60;29.67;;;10.70;94.70;;;;;;5056992;28;20171;-89
2022/01/01 08:25:56;;;;;;;88.77;34.53;;;10.70;94.70;;;;;;5074875;28;20174;-89
2022/01/01 08:28:21;;;;;;;79.70;31.47;;;10.70;94.80;;;;;;5058776;28;20211;-89
2022/01/01 08:30:47;;;;;;;76.53;32.80;;;10.70;94.80;;;;;;5057080;28;20171;-89
2022/01/01 08:33:13;;;;;;;79.07;33.17;;;10.80;94.70;;;;;;5057046;28;20214;-89
2022/01/01 08:35:38;;;;;;;81.60;33.33;;;10.80;94.70;;;;;;5056884;28;20207;-89
2022/01/01 08:38:04;;;;;;;89.70;35.53;;;10.80;94.70;;;;;;5056770;28;20647;-89
2022/01/01 08:40:31;;;;;;;89.67;35.00;;;10.80;94.70;;;;;;5074651;28;20190;-89
2022/01/01 08:42:58;;;;;;;87.00;37.00;;;10.70;94.70;;;;;;5074763;28;20179;-89
2022/01/01 08:45:24;;;;;;;81.27;34.47;;;10.70;94.70;;;;;;5056687;28;20175;-89
2022/01/01 08:47:51;;;;;;;94.77;35.77;;;10.80;94.70;;;;;;5056150;28;20206;-89
2022/01/01 08:50:17;;;;;;;95.23;37.13;;;10.80;94.80;;;;;;5074364;28;20191;-89
2022/01/01 08:52:43;;;;;;;82.27;35.97;;;10.80;94.80;;;;;;5056534;28;20179;-90
2022/01/01 08:55:10;;;;;;;102.60;34.43;;;10.80;94.80;;;;;;5056737;28;20635;-89
2022/01/01 08:57:36;;;;;;;101.03;38.70;;;10.80;94.80;;;;;;5056443;28;20175;-89
2022/01/01 09:00:05;;;;;;;83.57;28.73;;;10.80;94.80;;;;;;5056439;28;20202;-89
2022/01/01 09:02:30;;;;;;;81.80;37.90;;;10.80;94.70;;;;;;5074074;28;20178;-89
2022/01/01 09:04:56;;;;;;;92.37;36.53;;;10.90;94.70;;;;;;5056289;28;20171;-89
2022/01/01 09:07:28;;;;;;;85.30;36.97;;;10.90;94.70;;;;;;5056328;28;20203;-90
2022/01/01 09:09:57;;;;;;;94.23;38.40;;;10.90;94.60;;;;;;5056138;28;20191;-89
2022/01/01 09:12:24;;;;;;;90.93;36.70;;;10.90;94.60;;;;;;5055998;28;20266;-90
2022/01/01 09:14:49;;;;;;;92.93;38.50;;;10.90;94.60;;;;;;5056135;28;20172;-90
2022/01/01 09:17:16;;;;;;;93.10;37.07;;;10.90;94.50;;;;;;5056021;28;20225;-90
2022/01/01 09:19:42;;;;;;;86.17;38.93;;;11.00;94.50;;;;;;5055962;28;20211;-90
2022/01/01 09:22:07;;;;;;;86.23;36.50;;;11.00;94.50;;;;;;5055887;28;20175;-90
2022/01/01 09:24:33;;;;;;;92.83;37.87;;;11.00;94.50;;;;;;5056150;28;20689;-90
2022/01/01 09:26:59;;;;;;;95.05;44.22;;;10.90;94.40;;;;;;5072665;28;20430;-90
2022/01/01 09:29:25;;;;;;;98.03;38.97;;;11.10;94.30;;;;;;5056002;28;20563;-90
2022/01/01 09:31:50;;;;;;;97.33;40.43;;;11.00;94.30;;;;;;5056135;28;20174;-90
2022/01/01 09:34:16;;;;;;;96.43;38.90;;;11.00;94.30;;;;;;5056094;28;20190;-90
2022/01/01 09:36:42;;;;;;;94.03;40.03;;;11.00;94.40;;;;;;5055562;28;20175;-91
2022/01/01 09:39:08;;;;;;;100.97;41.30;;;11.00;94.40;;;;;;5055649;28;20197;-90
2022/01/01 09:41:34;;;;;;;84.90;34.77;;;11.00;94.40;;;;;;5055812;28;20176;-89
2022/01/01 09:44:00;;;;;;;94.67;43.47;;;11.00;94.30;;;;;;5055587;28;20210;-91
2022/01/01 09:46:28;;;;;;;98.13;41.43;;;11.00;94.30;;;;;;5073584;28;20175;-90
2022/01/01 09:48:54;;;;;;;105.23;43.37;;;11.10;94.30;;;;;;5055628;28;20225;-89
2022/01/01 09:51:21;;;;;;;93.30;42.27;;;11.10;94.30;;;;;;5055963;28;20257;-90
2022/01/01 09:53:47;;;;;;;83.67;36.37;;;11.00;94.20;;;;;;5055517;28;20171;-90
2022/01/01 09:56:13;;;;;;;97.50;45.00;;;11.10;94.30;;;;;;5073346;28;20172;-90
2022/01/01 09:58:39;;;;;;;103.87;45.03;;;11.00;94.30;;;;;;5055578;28;20521;-91
2022/01/01 10:01:07;;;;;;;106.77;47.97;;;11.10;94.30;;;;;;5055543;28;20171;-90
2022/01/01 10:03:42;;;;;;;110.33;46.53;;;11.10;94.20;;;;;;5055253;28;20179;-91
2022/01/01 10:06:14;;;;;;;112.67;51.80;;;11.20;94.20;;;;;;5056226;28;20262;-89
2022/01/01 10:09:02;;;;;;;113.87;51.90;;;11.10;94.10;;;;;;5055225;28;20279;-89
2022/01/01 10:11:28;;;;;;;101.67;42.93;;;11.10;94.10;;;;;;5055454;28;20270;-90
2022/01/01 10:13:53;;;;;;;105.00;50.27;;;11.10;94.20;;;;;;5055611;28;20202;-90
2022/01/01 10:16:20;;;;;;;126.47;54.43;;;11.10;94.20;;;;;;5055347;28;20172;-90
2022/01/01 10:18:48;;;;;;;106.70;48.50;;;11.10;94.20;;;;;;5055082;28;20207;-90
2022/01/01 10:21:16;;;;;;;108.20;52.50;;;11.10;94.20;;;;;;5055392;28;20225;-90
2022/01/01 10:23:45;;;;;;;79.90;40.57;;;11.10;94.20;;;;;;5055561;28;20194;-90
2022/01/01 10:29:24;;;;;;;91.93;44.47;;;11.10;94.20;;;;;;5073613;28;20206;-89
2022/01/01 10:32:02;;;;;;;98.77;45.67;;;11.10;94.10;;;;;;5055164;28;20159;-91
2022/01/01 10:34:33;;;;;;;70.77;36.60;;;11.10;94.10;;;;;;5055183;28;20528;-90
2022/01/01 10:37:00;;;;;;;85.30;42.57;;;11.10;94.10;;;;;;5055147;28;20203;-90
2022/01/01 10:39:27;;;;;;;88.27;38.90;;;11.10;94.00;;;;;;5054969;28;20202;-90
2022/01/01 10:42:01;;;;;;;79.87;36.40;;;11.10;93.90;;;;;;5055087;28;20202;-90
2022/01/01 10:44:33;;;;;;;71.13;35.53;;;11.10;93.70;;;;;;5055760;28;20167;-91
2022/01/01 10:47:04;;;;;;;65.23;32.63;;;11.20;93.70;;;;;;5055172;28;20663;-91
2022/01/01 10:52:17;;;;;;;52.43;27.57;;;11.20;93.50;;;;;;5073133;28;20164;-91
2022/01/01 10:54:52;;;;;;;56.67;29.43;;;11.20;93.30;;;;;;5055116;28;20163;-90
2022/01/01 10:57:35;;;;;;;57.20;27.80;;;11.20;93.30;;;;;;5055149;28;20183;-90
2022/01/01 11:00:13;;;;;;;55.80;27.10;;;11.10;93.20;;;;;;5055344;28;20207;-90
2022/01/01 11:02:42;;;;;;;54.67;28.70;;;11.10;93.20;;;;;;5054792;28;20655;-91
2022/01/01 11:05:08;;;;;;;60.73;29.77;;;11.10;93.20;;;;;;5054878;28;20187;-91
2022/01/01 11:07:35;;;;;;;53.13;28.10;;;11.00;93.20;;;;;;5054758;28;20203;-90
2022/01/01 11:10:00;;;;;;;67.13;32.30;;;11.10;93.30;;;;;;5056235;28;20195;-90
2022/01/01 11:12:28;;;;;;;73.17;32.63;;;11.10;93.40;;;;;;5058542;28;20176;-91
2022/01/01 11:14:55;;;;;;;65.90;32.83;;;11.10;93.50;;;;;;5058653;28;20198;-90
2022/01/01 11:17:22;;;;;;;60.30;28.50;;;11.10;93.60;;;;;;5058381;28;20180;-91
2022/01/01 11:19:48;;;;;;;55.83;27.70;;;11.20;93.50;;;;;;5058004;28;20296;-90
2022/01/01 11:22:15;;;;;;;65.60;31.03;;;11.20;93.40;;;;;;5058388;28;20207;-90
2022/01/01 11:24:41;;;;;;;68.87;33.17;;;11.30;93.10;;;;;;5058251;28;20746;-90
2022/01/01 11:27:08;;;;;;;60.40;29.53;;;11.30;93.10;;;;;;5058170;28;20221;-90
2022/01/01 11:29:34;;;;;;;57.33;29.70;;;11.40;93.00;;;;;;5075820;28;20209;-90
2022/01/01 11:32:01;;;;;;;61.17;30.90;;;11.30;93.00;;;;;;5057934;28;20176;-90
2022/01/01 11:34:30;;;;;;;63.43;29.43;;;11.30;92.90;;;;;;5057928;28;20171;-90
2022/01/01 11:36:56;;;;;;;53.83;27.60;;;11.40;93.00;;;;;;5057911;28;20201;-91
2022/01/01 11:39:25;;;;;;;51.30;26.27;;;11.40;92.90;;;;;;5057885;28;20259;-91
2022/01/01 11:41:52;;;;;;;48.53;24.73;;;11.60;92.70;;;;;;5058141;28;20175;-91
2022/01/01 11:44:31;;;;;;;55.90;27.33;;;11.60;92.60;;;;;;5057976;28;20178;-91
2022/01/01 11:47:17;;;;;;;52.63;26.07;;;11.60;92.50;;;;;;5057856;28;20202;-91
2022/01/01 11:49:43;;;;;;;51.97;24.30;;;11.60;92.30;;;;;;5057814;28;20264;-91
2022/01/01 11:52:08;;;;;;;51.57;25.33;;;11.60;92.30;;;;;;5076034;28;20639;-91
2022/01/01 11:54:39;;;;;;;48.70;23.63;;;11.60;92.30;;;;;;5057665;28;20543;-91
2022/01/01 11:57:06;;;;;;;45.13;23.90;;;11.60;92.50;;;;;;5058054;28;20309;-91
2022/01/01 11:59:37;;;;;;;53.47;25.03;;;11.60;92.60;;;;;;5057575;28;20245;-91
2022/01/01 12:02:18;;;;;;;51.33;25.63;;;11.50;92.60;;;;;;5057470;28;20191;-91
2022/01/01 12:04:50;;;;;;;52.63;26.33;;;11.50;92.80;;;;;;5057521;28;20175;-91
2022/01/01 12:07:16;;;;;;;58.60;27.93;;;11.50;92.90;;;;;;5057281;28;20675;-90
2022/01/01 12:09:48;;;;;;;52.67;25.77;;;11.40;93.10;;;;;;5075522;28;20194;-91
2022/01/01 12:12:17;;;;;;;53.40;26.50;;;11.30;93.60;;;;;;5057380;28;20228;-90
2022/01/01 12:14:44;;;;;;;56.83;27.50;;;11.30;93.70;;;;;;5057684;28;20176;-92
2022/01/01 12:17:10;;;;;;;68.75;34.75;;;11.30;93.90;;;;;;5057090;28;20445;-91
2022/01/01 12:19:38;;;;;;;65.90;31.07;;;11.30;94.00;;;;;;5057154;28;20253;-91
2022/01/01 12:22:07;;;;;;;65.43;30.40;;;11.30;94.30;;;;;;5057721;28;20183;-91
2022/01/01 12:24:35;;;;;;;68.53;30.43;;;11.30;94.50;;;;;;5058150;28;20603;-91
2022/01/01 12:27:09;;;;;;;62.03;29.90;;;11.30;94.60;;;;;;5056975;28;20252;-92
2022/01/01 12:29:34;;;;;;;70.37;33.60;;;11.30;94.70;;;;;;5057054;28;20246;-91
2022/01/01 12:32:00;;;;;;;68.00;32.63;;;11.30;94.80;;;;;;5057183;28;20628;-90